Terminal Aerodrome Forecast
Issued by NWS Dodge City, KS

Home | Current Version | Previous Version | Graphics & Text | Print | Product List | Glossary Off
Versions: 1 2 3 4 5 6 7 8 9 10 11 12 13 14 15 16 17 18 19 20 21 22 23 24 25 26 27 28 29 30 31 32

000
FTUS43 KDDC 290806 AAA
TAFDDC
TAF AMD
KDDC 290806Z 2908/3006 06013G24KT P6SM -TSRA OVC009CB
      TEMPO 2908/2909 3SM TSRA OVC006CB
     FM291200 07013KT 5SM SHRA OVC003
     FM292300 03013KT 3SM SHRA OVC003=

USA.gov is the U.S. government's official web portal to all federal, state and local government web resources and services.